Time;durP1;ratioP1;P1;durP2;ratioP2;P2;SDS_P1;SDS_P2;PMS_P1;PMS_P2;Temp;Humidity;BMP_temperature;BMP_pressure;BME280_temperature;BME280_humidity;BME280_pressure;Samples;Min_cycle;Max_cycle;Signal;HPM_P1;HPM_P2
2022/08/29 00:01:06;;;;;;;;;3.00;2.00;;;;;25.04;35.75;101281.44;5031307;28;45382;-50
2022/08/29 00:03:32;;;;;;;;;2.50;2.50;;;;;25.03;35.95;101285.03;5031921;28;45240;-42
2022/08/29 00:05:57;;;;;;;;;3.25;2.00;;;;;25.03;36.02;101289.50;5032276;28;45465;-48
2022/08/29 00:08:22;;;;;;;;;4.00;2.00;;;;;25.03;35.73;101292.16;5031399;28;45366;-49
2022/08/29 00:10:48;;;;;;;;;1.25;1.25;;;;;25.01;35.49;101287.81;5031372;28;45303;-44
2022/08/29 00:13:14;;;;;;;;;2.00;2.00;;;;;25.01;36.02;101282.50;5033382;28;45288;-54
2022/08/29 00:15:40;;;;;;;;;4.00;2.00;;;;;25.00;35.94;101280.78;5034771;28;45493;-50
2022/08/29 00:18:06;;;;;;;;;3.50;2.00;;;;;25.00;35.67;101280.78;5033962;28;45468;-67
2022/08/29 00:20:33;;;;;;;;;3.00;3.00;;;;;25.01;35.98;101279.84;5034836;28;45334;-46
2022/08/29 00:22:59;;;;;;;;;3.00;2.00;;;;;25.00;36.06;101278.13;5035119;28;45343;-42
2022/08/29 00:25:25;;;;;;;;;4.25;3.00;;;;;25.01;35.51;101281.66;5035235;28;45578;-41
2022/08/29 00:27:50;;;;;;;;;2.00;2.00;;;;;24.99;36.05;101279.09;5035034;28;46275;-42
2022/08/29 00:30:18;;;;;;;;;4.00;3.00;;;;;24.99;36.13;101279.09;5035099;28;45265;-42
2022/08/29 00:32:43;;;;;;;;;3.75;2.75;;;;;24.99;35.70;101279.09;5035029;28;45228;-42
2022/08/29 00:35:15;;;;;;;;;3.25;2.25;;;;;24.99;35.99;101278.25;5035210;28;45658;-45
2022/08/29 00:37:41;;;;;;;;;1.00;1.00;;;;;24.99;36.09;101275.59;5033256;28;46094;-41
2022/08/29 00:40:10;;;;;;;;;3.75;2.00;;;;;24.99;36.19;101270.31;5034719;28;45336;-41
2022/08/29 00:42:35;;;;;;;;;1.75;1.75;;;;;24.99;35.80;101271.13;5034777;28;45478;-42
2022/08/29 00:45:04;;;;;;;;;2.00;2.00;;;;;24.99;35.74;101273.78;5027010;28;45471;-41
2022/08/29 00:47:35;;;;;;;;;3.75;2.50;;;;;24.99;35.68;101279.09;5014382;28;48046;-45
2022/08/29 00:50:06;;;;;;;;;1.00;1.00;;;;;24.98;36.29;101272.09;5014403;28;45368;-41
2022/08/29 00:52:38;;;;;;;;;3.25;3.25;;;;;24.98;36.19;101281.84;5014345;28;45293;-41
2022/08/29 00:55:09;;;;;;;;;2.00;2.00;;;;;24.97;35.46;101275.69;5014822;28;45473;-41
2022/08/29 00:57:35;;;;;;;;;4.00;3.00;;;;;24.97;35.45;101281.00;5014215;28;47035;-42
2022/08/29 01:00:03;;;;;;;;;3.00;2.00;;;;;24.97;36.25;101281.00;5023012;28;45499;-41
2022/08/29 01:02:28;;;;;;;;;4.00;2.00;;;;;24.98;36.10;101284.50;5034322;28;45332;-41
2022/08/29 01:04:54;;;;;;;;;1.50;1.50;;;;;24.96;35.48;101295.22;5034673;28;45366;-42
2022/08/29 01:07:20;;;;;;;;;3.75;2.00;;;;;24.97;35.83;101285.47;5035212;28;45909;-43
2022/08/29 01:09:45;;;;;;;;;1.00;1.00;;;;;24.97;35.74;101286.28;5035278;28;45618;-41
2022/08/29 01:12:18;;;;;;;;;1.50;1.50;;;;;24.96;35.65;101284.63;5034471;28;45220;-42
2022/08/29 01:14:50;;;;;;;;;3.50;2.00;;;;;24.97;35.52;101272.19;5033567;28;45568;-42
2022/08/29 01:17:26;;;;;;;;;2.00;2.00;;;;;24.96;36.10;101273.16;5034555;28;46599;-43
2022/08/29 01:19:57;;;;;;;;;3.25;1.75;;;;;24.96;35.50;101267.84;5034393;28;45758;-50
2022/08/29 01:22:50;;;;;;;;;3.75;2.25;;;;;24.94;36.02;101265.31;5034107;28;45287;-41
2022/08/29 01:25:21;;;;;;;;;3.00;3.00;;;;;24.94;35.47;101270.63;5034775;28;45530;-42
2022/08/29 01:27:58;;;;;;;;;3.00;1.25;;;;;24.93;35.67;101266.25;5034775;28;46085;-42
2022/08/29 01:30:23;;;;;;;;;2.25;2.00;;;;;24.93;36.17;101268.03;5032978;28;45385;-42
2022/08/29 01:32:48;;;;;;;;;2.50;2.50;;;;;24.93;36.03;101263.59;5035000;28;45397;-41
2022/08/29 01:35:14;;;;;;;;;3.25;2.25;;;;;24.92;35.59;101264.56;5034222;28;45525;-46
2022/08/29 01:37:41;;;;;;;;;3.00;1.50;;;;;24.92;36.06;101261.91;5033796;28;45740;-41
2022/08/29 01:40:08;;;;;;;;;1.75;1.75;;;;;24.91;35.62;101256.72;5033826;28;45352;-41
2022/08/29 01:42:35;;;;;;;;;3.00;1.25;;;;;24.90;36.00;101257.66;5033725;28;45332;-49
2022/08/29 01:45:00;;;;;;;;;1.00;1.00;;;;;24.91;35.96;101269.97;5033480;28;45674;-41
2022/08/29 01:47:30;;;;;;;;;4.00;2.00;;;;;24.90;35.61;101263.81;5033424;28;46168;-48
2022/08/29 01:49:55;;;;;;;;;2.50;2.00;;;;;24.91;35.46;101259.38;5033539;28;45600;-41
2022/08/29 01:52:21;;;;;;;;;1.00;1.00;;;;;24.90;35.87;101257.66;5033713;28;45388;-44
2022/08/29 01:54:47;;;;;;;;;1.50;1.00;;;;;24.90;35.86;101258.50;5034750;28;45256;-41
2022/08/29 01:57:14;;;;;;;;;4.00;2.00;;;;;24.90;36.03;101255.84;5033612;28;46564;-41
2022/08/29 01:59:41;;;;;;;;;1.50;1.50;;;;;24.90;35.71;101252.38;5032783;28;45999;-47
2022/08/29 02:02:10;;;;;;;;;1.00;1.00;;;;;24.90;36.03;101252.38;5033719;28;45326;-42
2022/08/29 02:04:35;;;;;;;;;3.50;1.00;;;;;24.91;35.99;101256.72;5033632;28;45506;-50
2022/08/29 02:07:02;;;;;;;;;1.25;1.25;;;;;24.91;35.65;101260.22;5033495;28;45287;-49
2022/08/29 02:09:28;;;;;;;;;1.00;1.00;;;;;24.91;35.98;101259.38;5033313;28;45275;-44
2022/08/29 02:11:55;;;;;;;;;3.00;2.00;;;;;24.92;36.02;101256.59;5033732;28;45232;-43
2022/08/29 02:14:22;;;;;;;;;3.00;1.25;;;;;24.91;35.80;101259.38;5032786;28;45914;-41
2022/08/29 02:16:48;;;;;;;;;1.25;1.25;;;;;24.92;35.50;101259.25;5034156;28;45456;-45
2022/08/29 02:19:14;;;;;;;;;2.00;2.00;;;;;24.89;35.85;101256.81;5033430;28;45668;-44
2022/08/29 02:21:40;;;;;;;;;2.00;2.00;;;;;24.90;35.62;101253.19;5033375;28;45357;-41
2022/08/29 02:24:07;;;;;;;;;2.75;2.00;;;;;24.90;35.83;101258.50;5033595;28;45315;-41
2022/08/29 02:26:33;;;;;;;;;2.25;2.25;;;;;24.90;35.87;101250.56;5032885;28;45294;-43
2022/08/29 02:29:00;;;;;;;;;4.00;1.00;;;;;24.90;35.36;101247.91;5032467;28;45500;-55
2022/08/29 02:31:26;;;;;;;;;1.25;1.25;;;;;24.90;35.50;101250.56;5033111;28;45572;-48
2022/08/29 02:33:52;;;;;;;;;2.50;0.25;;;;;24.90;35.91;101252.38;5033477;28;45472;-41
2022/08/29 02:36:19;;;;;;;;;2.00;2.00;;;;;24.91;35.78;101248.75;5033018;28;46265;-42
2022/08/29 02:38:45;;;;;;;;;3.25;2.00;;;;;24.90;35.53;101239.94;5033781;28;45234;-42
2022/08/29 02:41:11;;;;;;;;;2.00;2.00;;;;;24.89;35.73;101243.53;5033182;28;45307;-41
2022/08/29 02:43:36;;;;;;;;;4.00;2.00;;;;;24.89;35.24;101246.19;5032198;28;45517;-41
2022/08/29 02:46:02;;;;;;;;;2.00;2.00;;;;;24.88;35.55;101249.81;5032894;28;45317;-49
2022/08/29 02:48:28;;;;;;;;;2.75;1.50;;;;;24.88;35.49;101246.31;5032635;28;45310;-44
2022/08/29 02:50:55;;;;;;;;;1.50;1.00;;;;;24.88;35.31;101243.66;5032738;28;45237;-41
2022/08/29 02:53:25;;;;;;;;;2.00;2.00;;;;;24.86;35.99;101241.09;5032933;28;45527;-47
2022/08/29 02:55:51;;;;;;;;;2.00;2.00;;;;;24.88;35.62;101243.66;5032783;28;46193;-41
2022/08/29 02:58:18;;;;;;;;;1.00;1.00;;;;;24.86;35.48;101241.09;5032862;28;45485;-43
2022/08/29 03:00:43;;;;;;;;;1.75;1.00;;;;;24.87;35.48;101237.50;5032638;28;45256;-41
2022/08/29 03:03:09;;;;;;;;;3.00;2.00;;;;;24.85;36.02;101245.56;5033041;28;45491;-41
2022/08/29 03:05:36;;;;;;;;;2.00;2.00;;;;;24.84;36.00;101241.22;5032519;28;45957;-42
2022/08/29 03:08:05;;;;;;;;;2.00;2.00;;;;;24.84;35.50;101243.03;5031188;28;45444;-48
2022/08/29 03:10:32;;;;;;;;;2.00;2.00;;;;;24.84;35.96;101235.91;5032487;28;45247;-43
2022/08/29 03:12:57;;;;;;;;;1.00;1.00;;;;;24.84;35.38;101237.72;5032216;28;45228;-42
2022/08/29 03:15:23;;;;;;;;;1.00;1.00;;;;;24.82;35.78;101235.16;5032144;28;45986;-41
2022/08/29 03:17:50;;;;;;;;;2.00;2.00;;;;;24.84;35.76;101237.72;5033432;28;45405;-44
2022/08/29 03:20:17;;;;;;;;;3.00;1.50;;;;;24.83;35.51;101241.31;5033414;28;45461;-42
2022/08/29 03:22:44;;;;;;;;;1.50;1.50;;;;;24.83;35.95;101238.69;5032482;28;45565;-43
2022/08/29 03:25:11;;;;;;;;;2.00;2.00;;;;;24.83;36.07;101242.16;5032697;28;46834;-46
2022/08/29 03:27:36;;;;;;;;;1.75;1.75;;;;;24.83;36.02;101236.03;5031292;28;45398;-42
2022/08/29 03:30:05;;;;;;;;;2.00;2.00;;;;;24.82;35.98;101239.63;5032679;28;45453;-42
2022/08/29 03:32:30;;;;;;;;;2.75;1.00;;;;;24.81;35.29;101237.91;5032307;28;45375;-42
2022/08/29 03:34:55;;;;;;;;;2.00;2.00;;;;;24.80;35.44;101231.78;5032155;28;45478;-42
2022/08/29 03:37:21;;;;;;;;;1.00;1.00;;;;;24.81;35.47;101229.97;5031872;28;46952;-42
2022/08/29 03:39:46;;;;;;;;;3.25;2.25;;;;;24.80;35.84;101228.28;5033318;28;45405;-53
2022/08/29 03:42:11;;;;;;;;;1.25;1.25;;;;;24.80;35.92;101228.28;5031750;28;45501;-42
2022/08/29 03:44:39;;;;;;;;;1.75;1.00;;;;;24.80;35.30;101220.31;5031831;28;46462;-49
2022/08/29 03:47:05;;;;;;;;;1.00;1.00;;;;;24.79;35.67;101230.09;5033489;28;45877;-55
2022/08/29 03:49:31;;;;;;;;;1.75;1.75;;;;;24.80;35.97;101230.91;5035230;28;45326;-47
2022/08/29 03:51:57;;;;;;;;;4.00;2.50;;;;;24.79;35.38;101226.56;5035983;28;45473;-68
2022/08/29 03:54:23;;;;;;;;;2.75;2.00;;;;;24.79;35.89;101223.91;5033741;28;47060;-60
2022/08/29 03:56:48;;;;;;;;;2.00;2.00;;;;;24.78;35.81;101227.50;5036448;28;45294;-55
2022/08/29 03:59:15;;;;;;;;;1.25;1.25;;;;;24.77;35.97;101228.47;5034817;28;45579;-44
2022/08/29 04:01:40;;;;;;;;;2.00;2.00;;;;;24.77;35.52;101231.97;5035612;28;45578;-47
2022/08/29 04:04:05;;;;;;;;;2.00;2.00;;;;;24.77;35.62;101233.78;5035347;28;46255;-44
2022/08/29 04:06:32;;;;;;;;;4.00;2.25;;;;;24.78;35.83;101238.13;5035177;28;45491;-46
2022/08/29 04:08:58;;;;;;;;;0.75;0.75;;;;;24.78;35.97;101240.78;5035423;28;45406;-42
2022/08/29 04:11:25;;;;;;;;;2.50;2.00;;;;;24.78;36.03;101238.13;5035329;28;45683;-42
2022/08/29 04:13:52;;;;;;;;;2.25;2.00;;;;;24.78;36.12;101243.41;5034791;28;46280;-42
2022/08/29 04:16:21;;;;;;;;;1.00;1.00;;;;;24.77;35.40;101241.72;5034754;28;46382;-42
2022/08/29 04:18:47;;;;;;;;;1.75;1.00;;;;;24.77;35.74;101245.25;5034972;28;45367;-41
2022/08/29 04:21:13;;;;;;;;;2.00;2.00;;;;;24.77;35.46;101237.28;5035420;28;45454;-41
2022/08/29 04:23:39;;;;;;;;;1.00;1.00;;;;;24.75;35.51;101231.22;5034786;28;46959;-42
2022/08/29 04:26:11;;;;;;;;;2.00;2.00;;;;;24.76;35.71;101238.25;5035361;28;45903;-46
2022/08/29 04:28:36;;;;;;;;;1.00;1.00;;;;;24.76;35.68;101237.38;5034014;28;45572;-41
2022/08/29 04:31:02;;;;;;;;;2.25;1.75;;;;;24.76;35.46;101232.06;5035304;28;45386;-41
2022/08/29 04:33:27;;;;;;;;;2.00;2.00;;;;;24.75;35.48;101233.03;5034637;28;45396;-43
2022/08/29 04:35:52;;;;;;;;;1.50;1.50;;;;;24.73;35.91;101234.94;5035042;28;45379;-45
2022/08/29 04:38:18;;;;;;;;;1.75;1.75;;;;;24.72;35.77;101234.09;5036053;28;45310;-46
2022/08/29 04:40:44;;;;;;;;;2.75;2.00;;;;;24.73;36.05;101240.25;5035036;28;45278;-43
2022/08/29 04:43:10;;;;;;;;;3.00;2.00;;;;;24.71;35.44;101232.38;5034030;28;45853;-43
2022/08/29 04:45:39;;;;;;;;;2.00;2.00;;;;;24.70;35.38;101239.50;5034506;28;45339;-42
2022/08/29 04:48:05;;;;;;;;;1.75;1.75;;;;;24.70;35.34;101236.84;5034798;28;45646;-42
2022/08/29 04:50:31;;;;;;;;;2.00;2.00;;;;;24.69;35.87;101240.44;5034591;28;45363;-42
2022/08/29 04:52:56;;;;;;;;;3.00;2.00;;;;;24.69;36.01;101245.75;5034694;28;46723;-46
2022/08/29 04:55:23;;;;;;;;;2.50;2.00;;;;;24.68;35.22;101254.66;5033062;28;45398;-42
2022/08/29 04:57:55;;;;;;;;;2.00;2.00;;;;;24.68;35.24;101253.78;5034752;28;45683;-42
2022/08/29 05:00:23;;;;;;;;;3.00;2.00;;;;;24.67;35.97;101258.22;5033972;28;45702;-43
2022/08/29 05:02:49;;;;;;;;;2.00;0.75;;;;;24.67;35.96;101263.50;5035210;28;47649;-45
2022/08/29 05:05:15;;;;;;;;;2.75;2.75;;;;;24.67;35.81;101258.22;5034105;28;45306;-47
2022/08/29 05:07:41;;;;;;;;;2.25;2.00;;;;;24.67;35.79;101262.69;5033355;28;45466;-42
2022/08/29 05:10:18;;;;;;;;;2.00;2.00;;;;;24.67;35.32;101267.97;5034723;28;45244;-43
2022/08/29 05:12:44;;;;;;;;;2.00;2.00;;;;;24.67;35.58;101263.50;5033442;28;45536;-48
2022/08/29 05:15:11;;;;;;;;;3.00;2.75;;;;;24.68;35.93;101275.84;5034084;28;45876;-42
2022/08/29 05:17:37;;;;;;;;;2.00;2.00;;;;;24.66;36.00;101272.41;5034293;28;45359;-45
2022/08/29 05:20:05;;;;;;;;;2.00;2.00;;;;;24.67;35.77;101271.47;5034379;28;45513;-42
2022/08/29 05:22:30;;;;;;;;;2.00;2.00;;;;;24.67;35.51;101263.50;5032729;28;45344;-42
2022/08/29 05:24:56;;;;;;;;;2.00;2.00;;;;;24.68;35.64;101275.84;5034204;28;45296;-42
2022/08/29 05:27:22;;;;;;;;;4.00;2.00;;;;;24.68;35.98;101272.34;5021893;28;45215;-42
2022/08/29 05:29:52;;;;;;;;;2.00;2.00;;;;;24.66;35.67;101277.72;5015313;28;45522;-45
2022/08/29 05:32:20;;;;;;;;;2.00;2.00;;;;;24.66;36.30;101283.00;5014443;28;45494;-50
2022/08/29 05:34:47;;;;;;;;;2.25;1.00;;;;;24.67;35.92;101287.38;5014150;28;45354;-43
2022/08/29 05:37:17;;;;;;;;;2.00;2.00;;;;;24.66;35.87;101280.38;5013850;28;45245;-51
2022/08/29 05:39:43;;;;;;;;;4.50;2.00;;;;;24.67;35.78;101290.00;5014313;28;45539;-51
2022/08/29 05:42:10;;;;;;;;;2.00;2.00;;;;;24.68;36.14;101285.59;5024537;28;45644;-45
2022/08/29 05:44:36;;;;;;;;;6.00;1.00;;;;;24.69;36.32;101293.47;5033833;28;45231;-50
2022/08/29 05:47:04;;;;;;;;;4.00;2.50;;;;;24.68;36.29;101297.06;5033965;28;45432;-53
2022/08/29 05:49:30;;;;;;;;;2.00;1.00;;;;;24.69;35.90;101298.75;5033582;28;45239;-42
2022/08/29 05:51:56;;;;;;;;;2.00;2.00;;;;;24.69;36.12;101303.22;5033698;28;46220;-43
2022/08/29 05:54:23;;;;;;;;;4.00;1.25;;;;;24.68;36.25;101291.75;5034157;28;45842;-45
2022/08/29 05:56:49;;;;;;;;;3.50;2.50;;;;;24.67;36.20;101297.97;5033873;28;46956;-48
2022/08/29 05:59:16;;;;;;;;;2.00;2.00;;;;;24.69;35.99;101304.06;5033511;28;45421;-44
2022/08/29 06:01:41;;;;;;;;;3.50;2.25;;;;;24.68;36.19;101297.06;5033472;28;45417;-44
2022/08/29 06:04:06;;;;;;;;;4.75;2.75;;;;;24.69;35.71;101298.75;5032126;28;45743;-47
2022/08/29 06:06:32;;;;;;;;;4.00;2.75;;;;;24.72;35.75;101300.34;5033420;28;45326;-45
2022/08/29 06:08:58;;;;;;;;;2.00;2.00;;;;;24.74;35.72;101305.56;5033701;28;45287;-42
2022/08/29 06:11:28;;;;;;;;;3.75;3.75;;;;;24.74;36.17;101305.56;5031255;28;46966;-43
2022/08/29 06:13:54;;;;;;;;;2.00;2.00;;;;;24.73;35.73;101303.88;5033921;28;45743;-42
2022/08/29 06:16:21;;;;;;;;;2.25;2.25;;;;;24.70;35.74;101305.75;5032719;28;45356;-44
2022/08/29 06:18:46;;;;;;;;;2.25;2.25;;;;;24.70;35.51;101305.75;5033635;28;45705;-45
2022/08/29 06:21:13;;;;;;;;;1.50;1.50;;;;;24.72;35.80;101304.81;5032976;28;45331;-51
2022/08/29 06:23:41;;;;;;;;;4.00;3.00;;;;;24.70;35.69;101308.41;5033538;28;45740;-41
2022/08/29 06:26:08;;;;;;;;;4.75;2.00;;;;;24.70;35.33;101312.84;5032698;28;45343;-45
2022/08/29 06:28:36;;;;;;;;;2.75;2.50;;;;;24.70;35.71;101326.97;5033442;28;45459;-44
2022/08/29 06:31:25;;;;;;;;;3.00;2.25;;;;;24.69;35.64;101327.91;5031631;28;46352;-42
2022/08/29 06:33:53;;;;;;;;;3.50;2.25;;;;;24.69;35.43;101321.78;5033903;28;45308;-42
2022/08/29 06:36:19;;;;;;;;;6.00;4.00;;;;;24.68;35.84;101334.16;5032871;28;45352;-43
2022/08/29 06:38:44;;;;;;;;;3.00;3.00;;;;;24.67;36.02;101319.16;5033340;28;45391;-47
2022/08/29 06:41:13;;;;;;;;;4.75;2.75;;;;;24.68;35.50;101320.03;5031771;28;45580;-41
2022/08/29 06:43:39;;;;;;;;;3.00;3.00;;;;;24.67;35.92;101323.63;5032864;28;45757;-42
2022/08/29 06:46:05;;;;;;;;;3.25;2.50;;;;;24.65;35.93;101318.41;5033148;28;45334;-43
2022/08/29 06:48:31;;;;;;;;;2.50;2.50;;;;;24.66;35.84;101324.59;5032771;28;45334;-42
2022/08/29 06:51:00;;;;;;;;;4.00;2.75;;;;;24.65;35.78;101317.59;5032688;28;45389;-46
2022/08/29 06:53:26;;;;;;;;;1.50;1.50;;;;;24.65;35.76;101310.47;5032639;28;45730;-42
2022/08/29 06:55:51;;;;;;;;;3.00;3.00;;;;;24.65;35.98;101314.94;5032931;28;45489;-43
2022/08/29 06:58:16;;;;;;;;;2.75;1.25;;;;;24.65;35.93;101314.94;5032615;28;45472;-45
2022/08/29 07:00:43;;;;;;;;;3.50;2.00;;;;;24.65;35.55;101318.41;5032537;28;45274;-41
2022/08/29 07:03:09;;;;;;;;;5.00;3.00;;;;;24.65;35.57;101326.38;5032409;28;45949;-42
2022/08/29 07:05:35;;;;;;;;;2.00;2.00;;;;;24.65;35.52;101336.13;5032665;28;45276;-47
2022/08/29 07:08:00;;;;;;;;;3.00;2.00;;;;;24.65;35.96;101334.31;5032775;28;45351;-44
2022/08/29 07:10:26;;;;;;;;;3.25;3.00;;;;;24.66;36.14;101332.53;5031302;28;45517;-41
2022/08/29 07:12:51;;;;;;;;;3.00;3.00;;;;;24.66;36.13;101336.03;5033273;28;45422;-41
2022/08/29 07:15:18;;;;;;;;;6.00;2.00;;;;;24.67;35.73;101323.63;5032252;28;45342;-42
2022/08/29 07:17:43;;;;;;;;;3.00;3.00;;;;;24.66;36.09;101325.41;5032752;28;45251;-46
2022/08/29 07:20:09;;;;;;;;;5.00;2.75;;;;;24.67;35.64;101321.00;5031905;28;45676;-44
2022/08/29 07:22:35;;;;;;;;;0.50;0.00;;;;;24.67;35.96;101326.28;5034358;28;45661;-45
2022/08/29 07:25:00;;;;;;;;;3.00;3.00;;;;;24.67;36.10;101321.81;5035354;28;45338;-46
2022/08/29 07:27:26;;;;;;;;;4.50;2.00;;;;;24.67;36.17;101327.13;5034922;28;45365;-45
2022/08/29 07:29:51;;;;;;;;;2.50;2.00;;;;;24.68;36.03;101328.84;5036623;28;46170;-57
2022/08/29 07:32:17;;;;;;;;;3.00;3.00;;;;;24.69;36.44;101325.25;5034145;28;45348;-52
2022/08/29 07:34:42;;;;;;;;;4.75;2.50;;;;;24.71;36.42;101322.50;5035868;28;45288;-46
2022/08/29 07:37:09;;;;;;;;;3.00;3.00;;;;;24.74;36.03;101324.13;5036053;28;45653;-52
2022/08/29 07:39:36;;;;;;;;;3.25;3.25;;;;;24.75;36.03;101329.31;5034830;28;47135;-43
2022/08/29 07:42:01;;;;;;;;;4.50;2.50;;;;;24.77;36.13;101322.13;5015895;28;45426;-41
2022/08/29 07:44:27;;;;;;;;;6.00;3.50;;;;;24.78;36.54;101331.78;5015751;28;45324;-42
2022/08/29 07:46:57;;;;;;;;;5.00;4.00;;;;;24.80;36.80;101329.00;5016770;28;45484;-42
2022/08/29 07:49:24;;;;;;;;;6.00;4.50;;;;;24.81;36.39;101334.19;5014696;28;48123;-51
2022/08/29 07:51:54;;;;;;;;;3.75;3.75;;;;;24.82;36.64;101330.59;5015709;28;45253;-41
2022/08/29 07:54:21;;;;;;;;;4.25;4.25;;;;;24.83;37.10;101329.66;5015770;28;45445;-41
2022/08/29 07:56:48;;;;;;;;;6.00;4.00;;;;;24.84;36.59;101333.16;5034938;28;45234;-40
2022/08/29 07:59:14;;;;;;;;;3.25;3.25;;;;;24.83;36.34;101328.81;5035096;28;45591;-46
2022/08/29 08:01:39;;;;;;;;;2.50;2.50;;;;;24.84;37.03;101335.81;5035464;28;45293;-47
2022/08/29 08:04:06;;;;;;;;;3.50;3.50;;;;;24.85;36.45;101337.53;5035614;28;45237;-42
2022/08/29 08:06:33;;;;;;;;;4.50;4.50;;;;;24.84;36.41;101330.50;5035363;28;45693;-53
2022/08/29 08:08:59;;;;;;;;;3.00;3.00;;;;;24.83;36.45;101321.69;5035343;28;46196;-41
2022/08/29 08:11:25;;;;;;;;;4.00;4.00;;;;;24.83;36.20;101323.50;5034624;28;45336;-42
2022/08/29 08:13:52;;;;;;;;;2.00;2.00;;;;;24.84;36.15;101322.56;5035374;28;45327;-52
2022/08/29 08:16:20;;;;;;;;;6.50;3.50;;;;;24.83;36.28;101319.03;5035142;28;45460;-60
2022/08/29 08:18:46;;;;;;;;;5.00;3.75;;;;;24.83;36.53;101323.50;5035196;28;46218;-44
2022/08/29 08:21:12;;;;;;;;;3.00;3.00;;;;;24.83;36.53;101315.56;5034704;28;45440;-42
2022/08/29 08:23:38;;;;;;;;;2.25;2.25;;;;;24.82;36.13;101313.84;5034006;28;45366;-42
2022/08/29 08:26:05;;;;;;;;;2.25;2.00;;;;;24.82;36.51;101303.25;5034795;28;45588;-41
2022/08/29 08:28:30;;;;;;;;;3.00;3.00;;;;;24.82;36.14;101308.56;5034666;28;46101;-42
2022/08/29 08:30:58;;;;;;;;;2.50;2.25;;;;;24.81;35.90;101310.34;5035842;28;45383;-50
2022/08/29 08:33:23;;;;;;;;;4.00;3.00;;;;;24.82;36.32;101311.19;5034615;28;45342;-51
2022/08/29 12:26:43;;;;;;;;;6.50;6.25;;;;;25.26;37.60;101221.59;5071469;22;45682;-45
2022/08/29 12:29:25;;;;;;;;;10.25;6.75;;;;;25.27;38.07;101220.66;5035397;28;45896;-41
2022/08/29 12:32:03;;;;;;;;;7.25;7.00;;;;;25.27;38.29;101207.38;5035315;28;45390;-42
2022/08/29 12:35:27;;;;;;;;;8.00;7.00;;;;;25.28;38.27;101223.22;5035069;28;45252;-41
2022/08/29 12:38:21;;;;;;;;;8.75;7.25;;;;;25.28;37.83;101217.03;4988622;28;46705;-41
2022/08/29 12:41:13;;;;;;;;;6.75;6.75;;;;;25.29;38.25;101211.66;4992820;28;45420;-42
2022/08/29 12:43:42;;;;;;;;;8.00;8.00;;;;;25.31;38.52;101211.53;5020959;28;45851;-41
2022/08/29 12:46:15;;;;;;;;;9.25;8.00;;;;;25.31;38.44;101214.19;5034661;28;45375;-42
2022/08/29 12:48:45;;;;;;;;;7.00;7.00;;;;;25.34;38.48;101205.16;5035686;28;45547;-41
2022/08/29 12:51:38;;;;;;;;;10.50;7.00;;;;;25.34;37.99;101200.72;5033912;28;45914;-41
2022/08/29 12:54:04;;;;;;;;;8.00;7.00;;;;;25.35;37.99;101196.25;5034547;28;45672;-42
2022/08/29 12:56:31;;;;;;;;;6.75;5.50;;;;;25.36;38.23;101193.47;5033115;28;45520;-42
2022/08/29 12:58:59;;;;;;;;;7.50;7.00;;;;;25.36;37.97;101190.81;5034387;28;45775;-41
2022/08/29 13:01:37;;;;;;;;;6.00;5.50;;;;;25.37;38.44;101187.22;5032911;28;46010;-46
2022/08/29 13:04:04;;;;;;;;;7.50;5.25;;;;;25.38;38.52;101188.91;5032783;28;45390;-45
2022/08/29 13:06:31;;;;;;;;;7.75;6.50;;;;;25.39;38.62;101184.47;5034363;28;45238;-42
2022/08/29 13:08:57;;;;;;;;;7.50;6.75;;;;;25.40;38.65;101173.75;5034311;28;47255;-42
2022/08/29 13:11:26;;;;;;;;;8.25;8.25;;;;;25.40;38.73;101176.41;5032812;28;45557;-42
2022/08/29 13:14:06;;;;;;;;;6.25;6.25;;;;;25.42;38.90;101171.00;5034299;28;45406;-45
2022/08/29 13:16:32;;;;;;;;;9.00;8.00;;;;;25.43;38.44;101176.22;5034465;28;45439;-47
2022/08/29 13:18:57;;;;;;;;;10.25;8.00;;;;;25.47;38.85;101158.25;5034134;28;45449;-44
2022/08/29 13:21:25;;;;;;;;;6.75;6.25;;;;;25.49;38.68;101155.47;5033585;28;45530;-45
2022/08/29 13:23:59;;;;;;;;;8.00;6.25;;;;;25.51;38.87;101159.75;5032946;28;45274;-43
2022/08/29 13:26:32;;;;;;;;;11.00;7.00;;;;;25.52;39.15;101153.44;5034072;28;45822;-43
2022/08/29 13:29:36;;;;;;;;;9.00;8.00;;;;;25.54;38.88;101151.53;5032832;28;47326;-44
2022/08/29 13:32:27;;;;;;;;;9.00;6.75;;;;;25.54;39.02;101143.56;5011094;28;45917;-46
2022/08/29 13:35:13;;;;;;;;;6.75;5.50;;;;;25.56;39.50;101139.00;5028166;28;45410;-42
2022/08/29 13:37:41;;;;;;;;;10.00;8.25;;;;;25.56;39.22;101133.69;5034083;28;45771;-42
2022/08/29 13:40:40;;;;;;;;;7.00;7.00;;;;;25.58;39.50;101126.47;5032382;28;46872;-41
2022/08/29 13:43:06;;;;;;;;;5.00;5.00;;;;;25.60;39.43;101121.91;5034196;28;45805;-41
2022/08/29 13:45:34;;;;;;;;;7.00;7.00;;;;;25.60;38.90;101121.91;5033823;28;45365;-48
2022/08/29 13:48:13;;;;;;;;;9.25;7.00;;;;;25.61;38.90;101117.44;5032725;28;45431;-48
2022/08/29 13:50:39;;;;;;;;;11.75;7.00;;;;;25.61;39.54;101126.28;5033816;28;46172;-44
2022/08/29 13:53:05;;;;;;;;;9.50;8.00;;;;;25.63;39.31;101121.66;5032424;28;45732;-43
2022/08/29 13:55:31;;;;;;;;;7.50;7.50;;;;;25.63;39.47;101112.88;5033915;28;45440;-46
2022/08/29 13:57:57;;;;;;;;;7.50;7.50;;;;;25.65;39.17;101126.03;5032730;28;45376;-46
2022/08/29 14:00:26;;;;;;;;;10.50;8.00;;;;;25.66;39.75;101120.63;5033362;28;46142;-44
2022/08/29 14:02:51;;;;;;;;;7.00;6.50;;;;;25.68;39.32;101121.38;5033747;28;45347;-47
2022/08/29 14:05:17;;;;;;;;;12.00;8.00;;;;;25.70;39.23;101118.59;5033501;28;45381;-44
2022/08/29 14:07:44;;;;;;;;;8.50;7.75;;;;;25.72;39.64;101117.50;5032273;28;45462;-46
2022/08/29 14:10:12;;;;;;;;;9.25;9.00;;;;;25.72;39.00;101111.38;5032796;28;46824;-49
2022/08/29 14:12:37;;;;;;;;;7.75;7.00;;;;;25.72;39.07;101114.00;5033351;28;45228;-48
2022/08/29 14:15:06;;;;;;;;;8.25;7.75;;;;;25.73;39.30;101113.91;5033226;28;45346;-46
2022/08/29 14:17:31;;;;;;;;;8.00;8.00;;;;;25.73;38.90;101113.91;5033506;28;45398;-42
2022/08/29 14:19:57;;;;;;;;;9.25;9.25;;;;;25.73;39.64;101113.91;5032874;28;45481;-42
2022/08/29 14:22:22;;;;;;;;;9.00;7.25;;;;;25.74;39.46;101106.78;5033055;28;45459;-50
2022/08/29 14:24:51;;;;;;;;;11.00;9.00;;;;;25.74;39.36;101106.78;5032807;28;45449;-42
2022/08/29 14:27:18;;;;;;;;;10.00;8.00;;;;;25.74;39.00;101097.00;5034022;28;45768;-43
2022/08/29 14:29:44;;;;;;;;;9.25;8.50;;;;;25.73;39.17;101107.75;5033732;28;46276;-45
2022/08/29 14:32:09;;;;;;;;;11.00;9.50;;;;;25.74;38.99;101106.78;5031610;28;45265;-43
2022/08/29 14:34:35;;;;;;;;;10.00;9.00;;;;;25.74;39.09;101117.41;5033026;28;45336;-46
2022/08/29 14:37:01;;;;;;;;;8.75;7.50;;;;;25.73;38.94;101111.25;5032983;28;45469;-48
2022/08/29 14:39:27;;;;;;;;;7.50;7.50;;;;;25.74;39.36;101114.75;5032396;28;45391;-48
2022/08/29 14:41:53;;;;;;;;;8.25;8.25;;;;;25.73;39.71;101108.59;5033265;28;46005;-45
2022/08/29 14:44:20;;;;;;;;;8.25;8.25;;;;;25.74;39.58;101104.13;5032811;28;45372;-42
2022/08/29 14:46:45;;;;;;;;;10.00;9.25;;;;;25.74;39.80;101109.44;5033667;28;45596;-42
2022/08/29 14:49:11;;;;;;;;;9.75;8.25;;;;;25.74;39.67;101112.09;5030412;28;46980;-48
2022/08/29 14:51:36;;;;;;;;;8.75;8.25;;;;;25.75;39.05;101109.31;5031430;28;45229;-45
2022/08/29 14:54:02;;;;;;;;;10.75;8.75;;;;;25.75;39.74;101106.66;5032945;28;45312;-42
2022/08/29 14:56:31;;;;;;;;;11.25;9.50;;;;;25.76;39.31;101110.16;5032371;28;45367;-46
2022/08/29 14:58:57;;;;;;;;;9.25;9.25;;;;;25.77;39.78;101103.88;5032282;28;45741;-42
2022/08/29 15:01:22;;;;;;;;;9.50;8.75;;;;;25.77;39.41;101096.78;5031094;28;45731;-46
2022/08/29 15:03:48;;;;;;;;;12.00;7.75;;;;;25.78;39.36;101094.97;5033079;28;45795;-45
2022/08/29 15:06:14;;;;;;;;;13.75;8.00;;;;;25.77;39.76;101098.59;5033576;28;45322;-41
2022/08/29 15:08:39;;;;;;;;;14.50;10.00;;;;;25.77;39.82;101090.63;5032497;28;46403;-41
2022/08/29 15:11:05;;;;;;;;;14.00;10.75;;;;;25.78;39.30;101097.63;5032105;28;45432;-46
2022/08/29 15:13:31;;;;;;;;;8.50;8.50;;;;;25.78;39.42;101089.66;5032603;28;45326;-44
2022/08/29 15:15:57;;;;;;;;;8.75;8.25;;;;;25.78;39.91;101094.97;5032647;28;45641;-46
2022/08/29 15:18:23;;;;;;;;;9.50;7.25;;;;;25.78;39.57;101084.34;5031865;28;46393;-42